Time;durP1;ratioP1;P1;durP2;ratioP2;P2;SDS_P1;SDS_P2;PMS_P1;PMS_P2;Temp;Humidity;BMP_temperature;BMP_pressure;BME280_temperature;BME280_humidity;BME280_pressure;Samples;Min_cycle;Max_cycle;Signal;HPM_P1;HPM_P2
2021/06/04 00:01:14;;;;;;;569.95;23.17;;;14.70;99.90;;;;;;5044507;28;20088;-89
2021/06/04 00:03:40;;;;;;;585.72;30.55;;;14.70;99.90;;;;;;5044307;28;20037;-87
2021/06/04 00:06:06;;;;;;;379.38;23.83;;;14.70;99.90;;;;;;5031768;28;20044;-88
2021/06/04 00:08:34;;;;;;;159.70;25.45;;;14.80;99.90;;;;;;5050831;28;20037;-89
2021/06/04 00:11:02;;;;;;;112.85;27.38;;;14.80;99.90;;;;;;5047495;28;20040;-88
2021/06/04 00:13:47;;;;;;;51.63;17.33;;;14.80;99.90;;;;;;5047296;28;20071;-88
2021/06/04 00:16:25;;;;;;;64.72;24.70;;;14.80;99.90;;;;;;5039858;28;20122;-88
2021/06/04 00:18:51;;;;;;;54.40;18.70;;;14.80;99.90;;;;;;5059720;28;20052;-88
2021/06/04 00:21:24;;;;;;;188.88;26.75;;;14.80;99.90;;;;;;5037048;28;20136;-88
2021/06/04 00:23:51;;;;;;;463.70;40.05;;;14.70;99.90;;;;;;5040111;28;20098;-89
2021/06/04 00:26:17;;;;;;;345.45;35.53;;;14.80;99.90;;;;;;5013693;28;20041;-91
2021/06/04 00:28:43;;;;;;;231.40;41.92;;;14.90;99.90;;;;;;5040175;28;20106;-88
2021/06/04 00:31:10;;;;;;;193.88;24.65;;;14.90;99.90;;;;;;5049538;28;20049;-89
2021/06/04 00:33:36;;;;;;;94.70;26.80;;;14.80;99.90;;;;;;5036089;28;20044;-89
2021/06/04 00:36:04;;;;;;;90.30;20.02;;;14.80;99.90;;;;;;5043555;28;20045;-88
2021/06/04 00:38:30;;;;;;;269.45;26.10;;;14.80;99.90;;;;;;5021508;28;20132;-89
2021/06/04 00:40:59;;;;;;;352.27;39.78;;;14.80;99.90;;;;;;5042295;28;20159;-89
2021/06/04 00:43:25;;;;;;;92.78;28.30;;;14.80;99.90;;;;;;5059730;28;20045;-91
2021/06/04 00:45:54;;;;;;;205.27;44.25;;;14.70;99.90;;;;;;5050777;28;20071;-88
2021/06/04 00:48:21;;;;;;;217.57;43.80;;;14.80;99.90;;;;;;5047780;28;20442;-89
2021/06/04 00:50:50;;;;;;;130.00;36.45;;;14.80;99.90;;;;;;5051393;28;20037;-89
2021/06/04 00:53:17;;;;;;;53.08;22.75;;;14.80;99.90;;;;;;5051432;28;20048;-88
2021/06/04 00:55:44;;;;;;;181.07;27.70;;;14.80;99.90;;;;;;5036667;28;20120;-88
2021/06/04 00:58:19;;;;;;;215.13;40.70;;;14.80;99.90;;;;;;5039495;28;20073;-88
2021/06/04 01:00:50;;;;;;;240.43;39.53;;;14.80;99.90;;;;;;5018560;28;20510;-91
2021/06/04 01:03:18;;;;;;;518.80;63.35;;;14.90;99.90;;;;;;5030033;28;20041;-88
2021/06/04 01:05:45;;;;;;;446.92;67.22;;;15.00;99.90;;;;;;5031180;28;20045;-89
2021/06/04 01:08:49;;;;;;;360.63;51.92;;;15.00;99.90;;;;;;5051397;28;20485;-88
2021/06/04 01:11:21;;;;;;;506.52;70.68;;;15.00;99.90;;;;;;4954494;28;20478;-89
2021/06/04 01:14:05;;;;;;;446.58;69.97;;;15.10;99.90;;;;;;4950271;29;20043;-89
2021/06/04 01:17:08;;;;;;;184.55;33.75;;;15.00;99.90;;;;;;4991904;28;20049;-89
2021/06/04 01:20:02;;;;;;;241.07;50.55;;;15.00;99.90;;;;;;5052790;28;20068;-89
2021/06/04 01:22:56;;;;;;;329.70;39.05;;;15.00;99.90;;;;;;5045859;28;20045;-90
2021/06/04 01:25:39;;;;;;;323.98;46.67;;;15.00;99.90;;;;;;5040528;28;20045;-88
2021/06/04 01:28:23;;;;;;;472.38;72.05;;;15.00;99.90;;;;;;5033420;28;20128;-89
2021/06/04 01:31:07;;;;;;;187.82;32.25;;;15.00;99.90;;;;;;5032170;28;20097;-90
2021/06/04 01:33:48;;;;;;;180.75;28.35;;;15.10;99.90;;;;;;5037139;28;20041;-89
2021/06/04 01:36:18;;;;;;;275.80;25.63;;;15.10;99.90;;;;;;5032462;28;20045;-88
2021/06/04 01:38:45;;;;;;;;;;;15.10;99.90;;;;;;5050220;28;20083;-88
2021/06/04 01:41:14;;;;;;;345.90;47.08;;;15.10;99.90;;;;;;5051003;28;19920;-88
2021/06/04 01:43:54;;;;;;;136.90;24.33;;;15.10;99.90;;;;;;5062581;28;20119;-88
2021/06/04 01:46:31;;;;;;;349.80;50.97;;;15.20;99.90;;;;;;5048714;28;20053;-88
2021/06/04 01:49:02;;;;;;;309.90;62.40;;;15.20;99.90;;;;;;5038957;28;20068;-89
2021/06/04 01:51:48;;;;;;;498.80;88.53;;;15.30;99.90;;;;;;5063660;28;20076;-93
2021/06/04 01:54:27;;;;;;;280.35;58.63;;;15.30;99.90;;;;;;5050292;28;20436;-88
2021/06/04 01:56:58;;;;;;;219.88;59.20;;;15.40;99.90;;;;;;5053762;28;20071;-90
2021/06/04 01:59:31;;;;;;;88.55;26.65;;;15.40;99.90;;;;;;5052191;28;20071;-88
2021/06/04 02:01:58;;;;;;;174.38;53.60;;;15.40;99.90;;;;;;5055634;28;20516;-89
2021/06/04 02:04:36;;;;;;;186.32;53.60;;;15.50;99.90;;;;;;5052109;28;20102;-88
2021/06/04 02:07:10;;;;;;;81.70;25.98;;;15.50;99.90;;;;;;5049891;28;20121;-88
2021/06/04 02:09:37;;;;;;;156.02;39.40;;;15.50;99.90;;;;;;5045701;28;20068;-87
2021/06/04 02:12:05;;;;;;;105.72;29.08;;;15.50;99.90;;;;;;5023688;28;20049;-88
2021/06/04 02:14:37;;;;;;;165.15;35.13;;;15.50;99.90;;;;;;5031884;28;20044;-88
2021/06/04 02:17:30;;;;;;;219.93;41.55;;;15.50;99.90;;;;;;5029688;28;20064;-87
2021/06/04 02:20:15;;;;;;;229.65;43.28;;;15.60;99.90;;;;;;5021055;28;20044;-87
2021/06/04 02:23:05;;;;;;;110.68;20.77;;;15.60;99.90;;;;;;5051402;28;20401;-87
2021/06/04 02:25:53;;;;;;;300.85;51.00;;;15.60;99.90;;;;;;5046198;28;20048;-89
2021/06/04 02:28:56;;;;;;;259.75;41.33;;;15.60;99.90;;;;;;5031619;28;20508;-88
2021/06/04 02:31:36;;;;;;;156.93;27.90;;;15.60;99.90;;;;;;5024760;28;20094;-89
2021/06/04 02:34:14;;;;;;;546.38;76.47;;;15.70;99.90;;;;;;5034665;28;20048;-88
2021/06/04 02:36:47;;;;;;;510.67;74.75;;;15.70;99.90;;;;;;5031973;28;20041;-87
2021/06/04 02:39:26;;;;;;;720.97;92.38;;;15.70;99.90;;;;;;5053053;28;20048;-87
2021/06/04 02:42:17;;;;;;;694.05;85.05;;;15.70;99.90;;;;;;5040109;28;20047;-88
2021/06/04 02:44:53;;;;;;;125.22;27.92;;;15.80;99.90;;;;;;5049586;28;20045;-88
2021/06/04 02:47:23;;;;;;;195.32;22.55;;;15.80;99.90;;;;;;5050147;28;20045;-87
2021/06/04 02:49:50;;;;;;;215.15;25.20;;;15.80;99.90;;;;;;5036000;28;20120;-87
2021/06/04 02:52:35;;;;;;;198.93;25.23;;;15.70;99.90;;;;;;5040297;28;20047;-87
2021/06/04 02:55:04;;;;;;;299.77;28.52;;;15.70;99.90;;;;;;5050985;28;20041;-87
2021/06/04 02:57:32;;;;;;;194.50;21.52;;;15.70;99.90;;;;;;5043684;28;20075;-92
2021/06/04 02:59:58;;;;;;;141.63;19.67;;;15.70;99.90;;;;;;5031647;28;20439;-87
2021/06/04 03:02:30;;;;;;;225.82;35.95;;;15.70;99.90;;;;;;5019214;28;20052;-87
2021/06/04 03:05:06;;;;;;;133.88;22.67;;;15.70;99.90;;;;;;5043508;28;20481;-87
2021/06/04 03:07:34;;;;;;;169.55;23.60;;;15.70;99.90;;;;;;5039360;28;20045;-91
2021/06/04 03:10:09;;;;;;;145.32;23.02;;;15.70;99.90;;;;;;5035617;28;20046;-87
2021/06/04 03:12:38;;;;;;;156.10;21.77;;;15.70;99.90;;;;;;5020197;28;20449;-88
2021/06/04 03:15:27;;;;;;;321.88;49.05;;;15.70;99.90;;;;;;5043026;28;20048;-86
2021/06/04 03:17:54;;;;;;;590.17;84.03;;;15.70;99.90;;;;;;5041923;28;20111;-87
2021/06/04 03:20:25;;;;;;;394.58;67.20;;;15.80;99.90;;;;;;5035872;28;20041;-86
2021/06/04 03:22:52;;;;;;;128.93;22.88;;;15.80;99.90;;;;;;5052654;28;20124;-87
2021/06/04 03:25:31;;;;;;;260.05;33.53;;;15.90;99.90;;;;;;5035769;28;20049;-86
2021/06/04 03:27:57;;;;;;;281.38;34.17;;;15.90;99.90;;;;;;5052463;28;20514;-86
2021/06/04 03:30:27;;;;;;;453.73;51.50;;;15.90;99.90;;;;;;5035533;28;20051;-86
2021/06/04 03:32:53;;;;;;;;;;;15.90;99.90;;;;;;5035568;28;20037;-87
2021/06/04 03:35:20;;;;;;;372.88;33.47;;;15.90;99.90;;;;;;5052819;28;19924;-87
2021/06/04 03:37:46;;;;;;;285.13;29.02;;;15.90;99.90;;;;;;5017588;28;20715;-88
2021/06/04 03:40:17;;;;;;;227.27;27.42;;;15.90;99.90;;;;;;5052709;28;20048;-87
2021/06/04 03:42:43;;;;;;;387.30;46.55;;;15.90;99.90;;;;;;5052543;28;20052;-88
2021/06/04 03:45:13;;;;;;;635.17;84.32;;;15.90;99.90;;;;;;5052865;28;20045;-87
2021/06/04 03:47:39;;;;;;;643.30;83.68;;;16.00;99.90;;;;;;5052288;28;20064;-87
2021/06/04 03:50:10;;;;;;;757.47;95.78;;;16.10;99.90;;;;;;5052668;28;20029;-88
2021/06/04 03:52:36;;;;;;;373.60;63.15;;;16.10;99.90;;;;;;5041263;28;20038;-92
2021/06/04 03:55:04;;;;;;;345.05;38.90;;;16.20;99.90;;;;;;5049289;28;20084;-88
2021/06/04 03:57:34;;;;;;;282.25;36.15;;;16.20;99.90;;;;;;5052905;28;20086;-88
2021/06/04 04:00:02;;;;;;;811.63;104.53;;;16.20;99.90;;;;;;5052956;28;20098;-89
2021/06/04 04:02:29;;;;;;;358.33;45.78;;;16.30;99.90;;;;;;5051724;28;20037;-88
2021/06/04 04:04:57;;;;;;;293.85;44.67;;;16.30;99.90;;;;;;5032673;28;20178;-89
2021/06/04 04:07:28;;;;;;;664.75;81.32;;;16.30;99.90;;;;;;5031297;28;20397;-89
2021/06/04 04:09:54;;;;;;;307.65;42.28;;;16.30;99.90;;;;;;5028910;28;20480;-88
2021/06/04 04:12:21;;;;;;;176.95;38.67;;;16.30;99.90;;;;;;5051863;28;20057;-87
2021/06/04 04:14:47;;;;;;;120.30;32.22;;;16.30;99.90;;;;;;5036430;28;20040;-88
2021/06/04 04:17:13;;;;;;;569.47;80.85;;;16.40;99.90;;;;;;5053608;28;20037;-89
2021/06/04 04:19:39;;;;;;;327.55;46.65;;;16.40;99.90;;;;;;5070074;28;20032;-90
2021/06/04 04:22:05;;;;;;;550.00;76.75;;;16.40;99.90;;;;;;5053616;28;20518;-88
2021/06/04 04:24:38;;;;;;;548.78;59.08;;;16.40;99.90;;;;;;5050176;28;20316;-88
2021/06/04 04:27:06;;;;;;;706.92;96.05;;;16.50;99.90;;;;;;5060539;28;20049;-88
2021/06/04 04:29:33;;;;;;;624.72;81.47;;;16.50;99.90;;;;;;5050941;28;20048;-89
2021/06/04 04:32:01;;;;;;;538.70;80.88;;;16.60;99.90;;;;;;5033437;28;20099;-87
2021/06/04 04:34:31;;;;;;;285.48;40.60;;;16.60;99.90;;;;;;5049659;28;20116;-88
2021/06/04 04:37:00;;;;;;;304.65;35.92;;;16.60;99.90;;;;;;5013776;28;20099;-87
2021/06/04 04:39:32;;;;;;;248.70;39.22;;;16.60;99.90;;;;;;5044935;28;20040;-89
2021/06/04 04:41:59;;;;;;;672.92;83.90;;;16.60;99.90;;;;;;5046139;28;20067;-88
2021/06/04 04:44:29;;;;;;;501.60;60.10;;;16.70;99.90;;;;;;5013968;28;20531;-88
2021/06/04 04:46:55;;;;;;;380.30;59.75;;;16.70;99.90;;;;;;5045442;28;20048;-88
2021/06/04 04:49:22;;;;;;;489.80;71.72;;;16.70;99.90;;;;;;5050929;28;20061;-88
2021/06/04 04:51:48;;;;;;;286.10;49.83;;;16.80;99.90;;;;;;5060942;28;20064;-88
2021/06/04 04:54:14;;;;;;;222.27;43.15;;;16.80;99.90;;;;;;5070357;28;20048;-88
2021/06/04 04:56:40;;;;;;;363.10;63.47;;;16.90;99.90;;;;;;5022262;28;20045;-92
2021/06/04 04:59:08;;;;;;;299.67;58.88;;;16.90;99.90;;;;;;5032734;28;20049;-88
2021/06/04 05:01:34;;;;;;;224.00;47.55;;;16.90;99.90;;;;;;5052242;28;20033;-89
2021/06/04 05:04:00;;;;;;;306.42;61.75;;;17.00;99.90;;;;;;5034483;28;20670;-88
2021/06/04 05:06:26;;;;;;;186.27;38.17;;;17.10;99.90;;;;;;5037962;28;20045;-87
2021/06/04 05:08:52;;;;;;;244.75;49.60;;;17.20;99.90;;;;;;5035291;28;20071;-87
2021/06/04 05:11:23;;;;;;;157.50;39.72;;;17.20;99.90;;;;;;5033967;28;20389;-87
2021/06/04 05:13:49;;;;;;;232.43;43.25;;;17.20;99.90;;;;;;5049789;28;20041;-87
2021/06/04 05:16:17;;;;;;;115.55;30.20;;;17.20;99.90;;;;;;5053473;28;20084;-87
2021/06/04 05:18:43;;;;;;;185.00;35.75;;;17.20;99.90;;;;;;5057446;28;20055;-93
2021/06/04 05:21:12;;;;;;;214.75;48.53;;;17.20;99.90;;;;;;5049842;28;20044;-89
2021/06/04 05:23:38;;;;;;;119.65;39.58;;;17.30;99.90;;;;;;5035538;28;20076;-89
2021/06/04 05:26:05;;;;;;;127.72;38.03;;;17.20;99.90;;;;;;5028984;28;20116;-89
2021/06/04 05:28:32;;;;;;;199.95;46.45;;;17.30;99.90;;;;;;5026387;28;20037;-90
2021/06/04 05:31:02;;;;;;;68.93;31.42;;;17.30;99.90;;;;;;5049852;28;20044;-90
2021/06/04 05:33:33;;;;;;;106.05;31.85;;;17.30;99.90;;;;;;5032692;28;20132;-89
2021/06/04 05:36:01;;;;;;;113.05;35.97;;;17.40;99.90;;;;;;5018120;28;20382;-90
2021/06/04 05:38:27;;;;;;;120.03;40.50;;;17.30;99.90;;;;;;5039498;28;20473;-89
2021/06/04 05:40:53;;;;;;;67.10;32.45;;;17.40;99.90;;;;;;5038347;28;20046;-89
2021/06/04 05:43:26;;;;;;;75.18;28.77;;;17.40;99.90;;;;;;5031859;28;20040;-89
2021/06/04 05:45:52;;;;;;;100.00;37.00;;;17.50;99.90;;;;;;5048954;28;20048;-89
2021/06/04 05:48:18;;;;;;;63.63;28.30;;;17.60;99.90;;;;;;5028840;28;20057;-89
2021/06/04 05:50:48;;;;;;;91.63;37.05;;;17.70;99.90;;;;;;5027009;28;20389;-90
2021/06/04 05:53:23;;;;;;;70.15;33.50;;;17.80;99.90;;;;;;5039804;28;20071;-89
2021/06/04 05:55:48;;;;;;;72.00;29.48;;;17.80;99.90;;;;;;5041648;28;20489;-89
2021/06/04 05:58:17;;;;;;;71.13;29.75;;;17.90;99.90;;;;;;5040896;28;20035;-89
2021/06/04 06:00:46;;;;;;;70.43;28.05;;;18.00;99.90;;;;;;5053842;28;20095;-92
2021/06/04 06:03:17;;;;;;;50.88;25.83;;;18.00;99.90;;;;;;5022204;28;20056;-91
2021/06/04 06:05:43;;;;;;;66.93;28.35;;;18.00;99.90;;;;;;5036210;28;20049;-94
2021/06/04 06:08:10;;;;;;;38.25;22.92;;;18.00;99.90;;;;;;5020193;28;20409;-91
2021/06/04 06:10:36;;;;;;;75.30;27.55;;;18.00;99.90;;;;;;5033806;28;20115;-92
2021/06/04 06:13:03;;;;;;;74.82;27.10;;;18.10;99.90;;;;;;5013413;28;20239;-92
2021/06/04 06:15:31;;;;;;;137.40;30.13;;;18.10;99.90;;;;;;5041352;28;20120;-91
2021/06/04 06:17:57;;;;;;;136.60;32.75;;;18.00;99.90;;;;;;5048157;28;20042;-90
2021/06/04 06:20:28;;;;;;;134.75;32.25;;;18.00;99.90;;;;;;5034844;28;20042;-90
2021/06/04 06:22:55;;;;;;;88.15;30.05;;;18.00;99.90;;;;;;5047932;28;20044;-91
2021/06/04 06:25:36;;;;;;;69.00;26.52;;;18.10;99.90;;;;;;5026019;28;20048;-91
2021/06/04 06:28:04;;;;;;;93.22;26.60;;;18.10;99.90;;;;;;5030786;28;20056;-91
2021/06/04 06:30:32;;;;;;;111.68;32.42;;;18.40;99.90;;;;;;5052434;28;20555;-90
2021/06/04 06:32:59;;;;;;;162.82;42.58;;;18.40;99.90;;;;;;5052632;28;20095;-91
2021/06/04 06:35:33;;;;;;;79.35;35.95;;;18.50;99.90;;;;;;5063082;28;20098;-90
2021/06/04 06:37:59;;;;;;;116.95;46.90;;;18.40;99.90;;;;;;5050385;28;20028;-91
2021/06/04 06:40:26;;;;;;;107.05;46.58;;;18.40;99.90;;;;;;5052638;28;20535;-90
2021/06/04 06:42:52;;;;;;;99.47;42.70;;;18.30;99.90;;;;;;5064918;28;20068;-90
2021/06/04 06:45:18;;;;;;;81.68;34.65;;;18.40;99.90;;;;;;5035064;28;20044;-91
2021/06/04 06:47:44;;;;;;;117.10;39.92;;;18.50;99.90;;;;;;5035344;28;20119;-90
2021/06/04 06:50:15;;;;;;;84.20;39.70;;;18.70;99.90;;;;;;5038070;28;20514;-90
2021/06/04 06:52:40;;;;;;;111.28;47.20;;;18.70;99.90;;;;;;5035598;28;20040;-89
2021/06/04 06:55:09;;;;;;;104.30;48.20;;;18.70;99.90;;;;;;5050363;28;20057;-90
2021/06/04 06:57:35;;;;;;;76.88;39.97;;;18.70;99.90;;;;;;5045099;28;20045;-90
2021/06/04 07:00:01;;;;;;;68.97;38.85;;;18.70;99.90;;;;;;5046644;28;20051;-92
2021/06/04 07:02:26;;;;;;;55.35;33.45;;;18.80;99.90;;;;;;5046148;28;20037;-90
2021/06/04 07:04:52;;;;;;;37.63;26.20;;;18.80;99.90;;;;;;5049969;28;20056;-91
2021/06/04 07:07:19;;;;;;;38.50;25.50;;;18.70;99.90;;;;;;5034547;28;20045;-92
2021/06/04 07:09:46;;;;;;;34.60;25.05;;;18.90;99.90;;;;;;5028450;28;20045;-91
2021/06/04 07:12:12;;;;;;;34.47;26.10;;;19.00;99.90;;;;;;5053764;28;20077;-91
2021/06/04 07:14:39;;;;;;;43.20;27.15;;;19.20;99.90;;;;;;5021514;28;20089;-90
2021/06/04 07:17:06;;;;;;;47.58;28.63;;;19.30;99.90;;;;;;5016981;28;20044;-90
2021/06/04 07:19:34;;;;;;;44.95;28.10;;;19.40;99.90;;;;;;5024030;28;20036;-90
2021/06/04 07:22:01;;;;;;;49.80;29.25;;;19.60;99.90;;;;;;5032988;28;20083;-90
2021/06/04 07:24:29;;;;;;;48.28;29.05;;;19.80;99.90;;;;;;5049237;28;20101;-90
2021/06/04 07:26:56;;;;;;;47.63;27.50;;;19.80;99.90;;;;;;5042478;28;20060;-91
2021/06/04 07:29:24;;;;;;;39.92;27.33;;;19.80;99.90;;;;;;5043352;28;20131;-91
2021/06/04 07:31:51;;;;;;;44.33;27.40;;;19.90;99.90;;;;;;5033214;28;20053;-93
2021/06/04 07:34:17;;;;;;;50.90;29.48;;;19.80;99.90;;;;;;5033078;28;20143;-91
2021/06/04 07:36:48;;;;;;;47.45;28.60;;;19.90;99.90;;;;;;5051421;28;20120;-91
2021/06/04 07:39:18;;;;;;;41.50;27.48;;;20.10;99.90;;;;;;5044244;28;20037;-92
2021/06/04 07:41:49;;;;;;;43.85;27.70;;;20.20;99.90;;;;;;5042302;28;20136;-92
2021/06/04 07:44:16;;;;;;;48.00;28.40;;;20.30;99.90;;;;;;5024708;28;20048;-90
2021/06/04 07:46:46;;;;;;;46.88;27.27;;;20.30;99.90;;;;;;5035835;28;20057;-88
2021/06/04 07:49:12;;;;;;;44.05;27.27;;;20.30;99.90;;;;;;5029385;28;20053;-92
2021/06/04 07:51:42;;;;;;;44.17;27.38;;;20.30;99.90;;;;;;5030633;28;20095;-90
2021/06/04 07:54:11;;;;;;;45.75;28.35;;;20.40;99.90;;;;;;5028799;28;20414;-90
2021/06/04 07:56:38;;;;;;;38.03;25.95;;;20.30;99.90;;;;;;5026276;28;20482;-87
2021/06/04 07:59:04;;;;;;;48.40;27.23;;;20.30;99.90;;;;;;5017571;28;20061;-90
2021/06/04 08:01:30;;;;;;;42.15;26.42;;;20.30;99.90;;;;;;5010933;28;20045;-89
2021/06/04 08:03:57;;;;;;;43.65;27.58;;;20.30;99.90;;;;;;5019875;28;20504;-88
2021/06/04 08:06:24;;;;;;;44.70;28.38;;;20.30;99.90;;;;;;5014586;28;20056;-88
2021/06/04 08:08:53;;;;;;;50.10;26.38;;;20.30;99.90;;;;;;5017858;28;20064;-89
2021/06/04 08:11:25;;;;;;;45.63;28.55;;;20.30;99.90;;;;;;5032226;28;20049;-87
2021/06/04 08:13:53;;;;;;;50.67;27.00;;;20.20;99.90;;;;;;5030581;28;20034;-86
2021/06/04 08:16:20;;;;;;;46.50;27.15;;;20.20;99.90;;;;;;5021737;28;20492;-89
2021/06/04 08:18:54;;;;;;;39.20;26.95;;;20.20;99.90;;;;;;5012505;28;20475;-90
2021/06/04 08:21:25;;;;;;;46.50;27.23;;;20.30;99.90;;;;;;5029524;28;20091;-89
2021/06/04 08:23:51;;;;;;;47.15;28.33;;;20.40;99.90;;;;;;5024210;28;20049;-90
2021/06/04 08:26:22;;;;;;;41.03;27.02;;;20.40;99.90;;;;;;5019052;28;20125;-88
2021/06/04 08:28:48;;;;;;;42.70;26.08;;;20.30;99.90;;;;;;5033374;28;20068;-88
2021/06/04 08:31:16;;;;;;;38.90;25.80;;;20.30;99.90;;;;;;5032461;28;20116;-88
2021/06/04 08:33:43;;;;;;;45.47;26.35;;;20.30;99.90;;;;;;5042032;28;20049;-88
2021/06/04 08:36:13;;;;;;;39.40;24.15;;;20.30;99.90;;;;;;5019681;28;20057;-88
2021/06/04 08:38:41;;;;;;;42.50;24.70;;;20.40;99.90;;;;;;5016442;28;20060;-89
2021/06/04 08:41:37;;;;;;;45.78;25.48;;;20.50;99.90;;;;;;5025512;28;20045;-89
2021/06/04 08:44:15;;;;;;;48.42;24.25;;;20.70;99.90;;;;;;5012439;28;20568;-88
2021/06/04 08:46:52;;;;;;;37.03;20.48;;;20.80;99.90;;;;;;5027394;28;20484;-88
2021/06/04 08:49:48;;;;;;;35.92;22.67;;;20.90;99.90;;;;;;5033343;28;20033;-88
2021/06/04 08:52:20;;;;;;;38.80;22.48;;;21.10;99.90;;;;;;5034566;28;20388;-89
2021/06/04 08:55:00;;;;;;;39.22;22.50;;;21.10;99.90;;;;;;5022273;28;20037;-89
2021/06/04 08:57:48;;;;;;;38.33;21.40;;;21.20;99.90;;;;;;5033768;28;20155;-88
2021/06/04 09:00:23;;;;;;;36.97;21.00;;;21.30;99.90;;;;;;5049042;28;20029;-88
2021/06/04 09:02:54;;;;;;;45.67;22.17;;;21.40;99.90;;;;;;5039234;28;20536;-89
2021/06/04 09:05:44;;;;;;;36.60;20.50;;;21.40;99.90;;;;;;5041072;28;20049;-89
2021/06/04 09:08:20;;;;;;;38.20;21.42;;;21.50;99.90;;;;;;5039460;28;20052;-89
2021/06/04 09:10:48;;;;;;;29.75;20.02;;;21.60;99.90;;;;;;5036412;28;20037;-89
2021/06/04 09:13:20;;;;;;;31.48;19.45;;;21.60;99.90;;;;;;5029082;28;20134;-90
2021/06/04 09:15:47;;;;;;;33.33;19.83;;;21.60;99.90;;;;;;5032615;28;20098;-90
2021/06/04 09:18:19;;;;;;;37.33;19.77;;;21.70;99.90;;;;;;5037490;28;20108;-89
2021/06/04 09:20:57;;;;;;;31.63;17.67;;;21.80;99.90;;;;;;5038320;28;20048;-89
2021/06/04 09:23:32;;;;;;;27.58;17.35;;;21.90;99.90;;;;;;5023640;28;20459;-89
2021/06/04 09:26:00;;;;;;;24.80;16.73;;;21.90;99.90;;;;;;5019710;28;20052;-92
2021/06/04 09:28:31;;;;;;;30.27;15.38;;;22.10;99.90;;;;;;5054408;28;20071;-89
2021/06/04 09:31:16;;;;;;;25.48;15.70;;;22.10;99.90;;;;;;5053536;28;20065;-92
2021/06/04 09:33:50;;;;;;;24.15;15.32;;;22.20;99.90;;;;;;5019409;28;20507;-90
2021/06/04 09:36:26;;;;;;;28.55;16.27;;;22.20;99.90;;;;;;5050154;28;20037;-91
2021/06/04 09:39:21;;;;;;;25.00;16.13;;;22.30;99.90;;;;;;5026614;28;20055;-89
2021/06/04 09:41:47;;;;;;;26.38;15.90;;;22.30;99.90;;;;;;5021370;28;20080;-91
2021/06/04 09:44:16;;;;;;;22.40;14.95;;;22.30;99.90;;;;;;5045818;28;20099;-89
2021/06/04 09:46:53;;;;;;;23.35;16.55;;;22.30;99.90;;;;;;5034163;28;20132;-90
2021/06/04 09:49:42;;;;;;;22.63;16.13;;;22.40;99.90;;;;;;5053256;28;20488;-91
2021/06/04 09:52:21;;;;;;;23.58;16.63;;;22.50;99.90;;;;;;5048146;28;20629;-91
2021/06/04 09:55:00;;;;;;;24.63;17.15;;;22.60;99.90;;;;;;5017503;28;20475;-94
2021/06/04 09:57:26;;;;;;;21.15;16.10;;;22.70;99.90;;;;;;5040905;28;20041;-92
2021/06/04 09:59:51;;;;;;;29.05;17.08;;;22.90;99.90;;;;;;5032526;28;20536;-91
2021/06/04 10:02:36;;;;;;;26.65;17.38;;;23.00;99.90;;;;;;5048322;28;20086;-92
2021/06/04 10:05:24;;;;;;;30.85;16.33;;;23.00;99.90;;;;;;5027556;28;20050;-93
2021/06/04 10:08:05;;;;;;;27.65;16.75;;;23.10;99.90;;;;;;5034877;28;20049;-91
2021/06/04 10:10:36;;;;;;;20.55;16.17;;;23.00;99.90;;;;;;5034496;28;20041;-91
2021/06/04 10:13:48;;;;;;;27.88;17.38;;;23.10;99.90;;;;;;5034688;28;20098;-93
2021/06/04 10:19:23;;;;;;;35.28;21.98;;;23.00;99.90;;;;;;5055282;28;20048;-91
2021/06/04 10:22:13;;;;;;;30.98;21.63;;;22.90;99.90;;;;;;5034819;28;20044;-92
2021/06/04 10:24:43;;;;;;;30.67;21.48;;;22.70;99.90;;;;;;5047797;28;20033;-92
2021/06/04 10:27:31;;;;;;;25.13;20.13;;;22.60;99.90;;;;;;5003892;28;20409;-93
2021/06/04 10:30:39;;;;;;;26.65;17.75;;;22.60;99.90;;;;;;5045026;28;20051;-90
2021/06/04 10:33:30;;;;;;;29.92;19.55;;;22.80;99.90;;;;;;5024141;28;20037;-91
2021/06/04 10:36:03;;;;;;;29.17;18.38;;;23.10;99.90;;;;;;5058492;28;20041;-92
2021/06/04 10:38:53;;;;;;;32.05;18.30;;;23.10;99.90;;;;;;5042396;28;20042;-91
2021/06/04 10:41:44;;;;;;;26.77;18.20;;;23.00;99.90;;;;;;5039822;28;20051;-92
2021/06/04 10:44:19;;;;;;;25.40;19.05;;;22.90;99.90;;;;;;5038994;28;20539;-91
2021/06/04 10:46:47;;;;;;;27.70;18.15;;;22.90;99.90;;;;;;5027597;28;20069;-91
2021/06/04 10:49:37;;;;;;;23.30;17.07;;;23.00;99.90;;;;;;5047491;28;20120;-92
2021/06/04 10:52:42;;;;;;;24.08;17.33;;;23.30;99.90;;;;;;5045393;28;20033;-93
2021/06/04 10:55:29;;;;;;;27.85;17.40;;;23.40;99.90;;;;;;5017516;28;20527;-95
2021/06/04 10:58:27;;;;;;;25.00;18.42;;;23.40;99.90;;;;;;5039862;28;20041;-91
2021/06/04 11:00:54;;;;;;;33.03;18.38;;;23.40;99.90;;;;;;5048420;28;20528;-91
2021/06/04 11:03:53;;;;;;;29.77;19.38;;;23.40;99.90;;;;;;5027471;28;20052;-90
2021/06/04 11:06:22;;;;;;;30.65;19.00;;;23.30;99.90;;;;;;4992256;28;20056;-91
2021/06/04 11:09:15;;;;;;;27.83;18.20;;;23.40;99.90;;;;;;5033726;28;20047;-91
2021/06/04 11:11:44;;;;;;;27.02;18.05;;;23.40;99.90;;;;;;5055087;28;20279;-92
2021/06/04 11:14:09;;;;;;;21.00;14.73;;;23.60;99.90;;;;;;5042131;28;20037;-91
2021/06/04 11:17:13;;;;;;;30.85;16.48;;;23.80;99.90;;;;;;5036513;28;20068;-91
2021/06/04 11:19:48;;;;;;;17.95;12.38;;;24.20;99.90;;;;;;4961858;28;20055;-91
2021/06/04 11:22:20;;;;;;;19.13;12.02;;;24.30;99.90;;;;;;5042739;28;20045;-91
2021/06/04 11:24:56;;;;;;;17.25;10.98;;;24.60;99.90;;;;;;5027750;28;20045;-90
2021/06/04 11:27:39;;;;;;;19.80;12.45;;;24.50;99.90;;;;;;5020457;28;20059;-92
2021/06/04 11:30:15;;;;;;;21.15;12.75;;;24.60;99.90;;;;;;5017403;28;20405;-90
2021/06/04 11:33:15;;;;;;;19.88;12.70;;;24.80;99.90;;;;;;5032563;28;20029;-91
2021/06/04 11:35:48;;;;;;;20.73;14.05;;;25.00;99.90;;;;;;5033435;28;20041;-90
2021/06/04 11:38:31;;;;;;;27.15;16.13;;;25.30;99.90;;;;;;5032374;28;20037;-91
2021/06/04 11:41:09;;;;;;;27.58;15.93;;;25.30;99.90;;;;;;5020631;28;20041;-90
2021/06/04 11:43:39;;;;;;;32.50;20.58;;;25.30;99.90;;;;;;5010994;28;20132;-90
2021/06/04 11:46:30;;;;;;;31.42;21.17;;;24.90;99.90;;;;;;5050559;28;20052;-89
2021/06/04 11:49:07;;;;;;;30.75;19.98;;;24.50;99.90;;;;;;5031055;28;20118;-90
2021/06/04 11:51:38;;;;;;;32.30;20.17;;;24.10;99.90;;;;;;5031311;28;20178;-90
2021/06/04 11:54:40;;;;;;;29.90;19.40;;;24.00;99.90;;;;;;5047657;28;20048;-89
2021/06/04 11:57:13;;;;;;;34.42;21.25;;;23.80;99.90;;;;;;4968890;28;20579;-90
2021/06/04 11:59:53;;;;;;;40.30;25.08;;;23.80;99.90;;;;;;5027312;28;20049;-89
2021/06/04 12:02:27;;;;;;;37.58;24.58;;;23.60;99.90;;;;;;5043896;28;20497;-88
2021/06/04 12:05:19;;;;;;;37.10;25.00;;;23.30;99.90;;;;;;5032773;28;20040;-89
2021/06/04 12:08:06;;;;;;;42.22;26.73;;;23.10;99.90;;;;;;5029912;28;20041;-89
2021/06/04 12:10:50;;;;;;;49.95;29.27;;;23.00;99.90;;;;;;5045255;28;20166;-88
2021/06/04 12:13:38;;;;;;;44.92;31.10;;;22.90;99.90;;;;;;5034733;28;20052;-91
2021/06/04 12:18:52;;;;;;;45.80;29.50;;;23.00;99.90;;;;;;5057568;28;20037;-89
2021/06/04 12:21:37;;;;;;;43.63;28.17;;;23.00;99.90;;;;;;5049993;28;20044;-89
2021/06/04 12:24:24;;;;;;;51.15;30.50;;;23.00;99.90;;;;;;5044297;28;20045;-89
2021/06/04 12:26:57;;;;;;;51.42;32.83;;;23.30;99.90;;;;;;5025267;28;20064;-89
2021/06/04 12:29:23;;;;;;;55.50;33.65;;;23.20;99.90;;;;;;5050781;28;20052;-89
2021/06/04 12:31:57;;;;;;;53.50;32.17;;;23.00;99.90;;;;;;5050419;28;20049;-88
2021/06/04 12:34:35;;;;;;;62.28;34.58;;;22.80;99.90;;;;;;5046807;28;20408;-89
2021/06/04 12:37:25;;;;;;;67.60;36.53;;;22.60;99.90;;;;;;5039864;28;20076;-89
2021/06/04 12:40:13;;;;;;;61.25;36.80;;;22.60;99.90;;;;;;5047167;28;20036;-89
2021/06/04 12:42:43;;;;;;;57.80;36.25;;;22.50;99.90;;;;;;5018834;28;20049;-89
2021/06/04 12:45:15;;;;;;;70.72;40.08;;;22.40;99.90;;;;;;5042075;28;20037;-88
2021/06/04 12:48:12;;;;;;;67.63;40.22;;;22.10;99.90;;;;;;5053476;28;20060;-89
2021/06/04 12:50:42;;;;;;;69.25;42.08;;;21.80;99.90;;;;;;5036104;28;20116;-89
2021/06/04 12:53:19;;;;;;;73.88;41.95;;;21.90;99.90;;;;;;5018661;28;20041;-88
2021/06/04 12:55:48;;;;;;;72.88;41.85;;;22.00;99.90;;;;;;5069097;28;20068;-88
2021/06/04 12:58:28;;;;;;;72.32;39.40;;;22.10;99.90;;;;;;5051343;28;20060;-89
2021/06/04 13:01:25;;;;;;;76.45;43.83;;;22.00;99.90;;;;;;5049082;28;20048;-89